createdAt,value
2016-06-23T00:00:29.368Z,972.4
2016-06-23T00:01:29.366Z,972.44
2016-06-23T00:02:29.368Z,972.42
2016-06-23T00:03:29.369Z,972.43
2016-06-23T00:04:29.372Z,972.41
2016-06-23T00:05:29.380Z,972.46
2016-06-23T00:06:29.380Z,972.45
2016-06-23T00:07:29.381Z,972.44
2016-06-23T00:08:29.383Z,972.47
2016-06-23T00:09:29.382Z,972.46
2016-06-23T00:10:29.386Z,972.46
2016-06-23T00:11:29.387Z,972.48
2016-06-23T00:12:29.391Z,972.47
2016-06-23T00:13:29.390Z,972.48
2016-06-23T00:14:29.396Z,972.43
2016-06-23T00:15:29.395Z,972.5
2016-06-23T00:16:29.400Z,972.46
2016-06-23T00:17:29.497Z,972.48
2016-06-23T00:18:29.403Z,972.43
2016-06-23T00:19:29.404Z,972.43
2016-06-23T00:20:29.406Z,972.46
2016-06-23T00:21:29.412Z,972.44
2016-06-23T00:22:29.415Z,972.43
2016-06-23T00:23:29.414Z,972.42
2016-06-23T00:24:29.409Z,972.47
2016-06-23T00:25:29.421Z,972.45
2016-06-23T00:26:29.418Z,972.4
2016-06-23T00:27:29.468Z,972.43
2016-06-23T00:28:29.416Z,972.38
2016-06-23T00:29:29.424Z,972.4
2016-06-23T00:30:29.422Z,972.41
2016-06-23T00:31:29.428Z,972.41
2016-06-23T00:32:29.427Z,972.38
2016-06-23T00:33:29.429Z,972.37
2016-06-23T00:34:29.434Z,972.38
2016-06-23T00:35:29.433Z,972.38
2016-06-23T00:36:29.433Z,972.4
2016-06-23T00:37:29.440Z,972.36
2016-06-23T00:38:29.446Z,972.41
2016-06-23T00:39:29.441Z,972.4
2016-06-23T00:40:29.445Z,972.41
2016-06-23T00:41:29.450Z,972.41
2016-06-23T00:42:29.447Z,972.37
2016-06-23T00:43:29.449Z,972.34
2016-06-23T00:44:29.457Z,972.38
2016-06-23T00:45:29.455Z,972.35
2016-06-23T00:46:29.455Z,972.33
2016-06-23T00:47:29.459Z,972.35
2016-06-23T00:48:29.462Z,972.36
2016-06-23T00:49:29.461Z,972.32
2016-06-23T00:50:29.462Z,972.33
2016-06-23T00:51:29.463Z,972.36
2016-06-23T00:52:29.466Z,972.34
2016-06-23T00:53:29.467Z,972.34
2016-06-23T00:54:29.476Z,972.4
2016-06-23T00:55:29.469Z,972.4
2016-06-23T00:56:29.474Z,972.42
2016-06-23T00:57:29.475Z,972.37
2016-06-23T00:58:29.480Z,972.4
2016-06-23T00:59:29.484Z,972.37
2016-06-23T01:00:29.481Z,972.38
2016-06-23T01:01:29.488Z,972.37
2016-06-23T01:02:29.484Z,972.36
2016-06-23T01:03:29.495Z,972.3
2016-06-23T01:04:29.493Z,972.32
2016-06-23T01:05:29.490Z,972.28
2016-06-23T01:06:29.492Z,972.26
2016-06-23T01:07:29.499Z,972.28
2016-06-23T01:08:29.497Z,972.24
2016-06-23T01:09:29.499Z,972.23
2016-06-23T01:10:29.499Z,972.25
2016-06-23T01:11:29.558Z,972.24
2016-06-23T01:12:29.562Z,972.23
2016-06-23T01:13:29.551Z,972.26
2016-06-23T01:14:29.511Z,972.2
2016-06-23T01:15:29.508Z,972.21
2016-06-23T01:16:29.514Z,972.25
2016-06-23T01:17:29.512Z,972.21
2016-06-23T01:18:29.514Z,972.18
2016-06-23T01:19:29.519Z,972.2
2016-06-23T01:20:29.515Z,972.23
2016-06-23T01:21:29.523Z,972.22
2016-06-23T01:22:29.523Z,972.2
2016-06-23T01:23:29.525Z,972.18
2016-06-23T01:24:29.524Z,972.17
2016-06-23T01:25:29.527Z,972.17
2016-06-23T01:26:29.530Z,972.17
2016-06-23T01:27:29.528Z,972.19
2016-06-23T01:28:29.533Z,972.17
2016-06-23T01:29:29.532Z,972.19
2016-06-23T01:30:29.543Z,972.16
2016-06-23T01:31:29.536Z,972.14
2016-06-23T01:32:29.544Z,972.14
2016-06-23T01:33:29.543Z,972.1
2016-06-23T01:34:29.540Z,972.09
2016-06-23T01:35:29.540Z,972.1
2016-06-23T01:36:29.542Z,972.09
2016-06-23T01:37:29.550Z,972.07
2016-06-23T01:38:29.549Z,972.05
2016-06-23T01:39:29.551Z,972.04
2016-06-23T01:40:29.554Z,972.01
2016-06-23T01:41:29.557Z,972
2016-06-23T01:42:29.558Z,972.01
2016-06-23T01:43:29.558Z,971.94
2016-06-23T01:44:29.561Z,971.96
2016-06-23T01:45:29.561Z,971.91
2016-06-23T01:46:29.563Z,971.9
2016-06-23T01:47:29.566Z,971.93
2016-06-23T01:48:29.565Z,971.9
2016-06-23T01:49:29.564Z,971.91
2016-06-23T01:50:29.569Z,971.9
2016-06-23T01:51:29.570Z,971.9
2016-06-23T01:52:29.575Z,971.9
2016-06-23T01:53:29.573Z,971.88
2016-06-23T01:54:29.575Z,971.9
2016-06-23T01:55:29.578Z,971.85
2016-06-23T01:56:29.578Z,971.84
2016-06-23T01:57:29.582Z,971.8
2016-06-23T01:58:29.583Z,971.82
2016-06-23T01:59:29.583Z,971.81
2016-06-23T02:00:29.588Z,971.78
2016-06-23T02:01:29.586Z,971.79
2016-06-23T02:02:29.587Z,971.79
2016-06-23T02:03:29.589Z,971.77
2016-06-23T02:04:29.591Z,971.8
2016-06-23T02:05:29.598Z,971.78
2016-06-23T02:06:29.595Z,971.83
2016-06-23T02:07:29.601Z,971.8
2016-06-23T02:08:29.607Z,971.8
2016-06-23T02:09:29.600Z,971.81
2016-06-23T02:10:29.603Z,971.83
2016-06-23T02:11:29.629Z,971.85
2016-06-23T02:12:29.606Z,971.81
2016-06-23T02:13:29.611Z,971.8
2016-06-23T02:14:29.615Z,971.79
2016-06-23T02:15:29.619Z,971.8
2016-06-23T02:16:29.608Z,971.82
2016-06-23T02:17:29.660Z,971.77
2016-06-23T02:18:29.617Z,971.79
2016-06-23T02:19:29.620Z,971.78
2016-06-23T02:20:29.619Z,971.81
2016-06-23T02:21:29.622Z,971.79
2016-06-23T02:22:29.624Z,971.8
2016-06-23T02:23:29.622Z,971.77
2016-06-23T02:24:29.624Z,971.75
2016-06-23T02:25:29.627Z,971.77
2016-06-23T02:26:29.625Z,971.72
2016-06-23T02:27:29.634Z,971.75
2016-06-23T02:28:29.631Z,971.74
2016-06-23T02:29:29.633Z,971.77
2016-06-23T02:30:29.636Z,971.78
2016-06-23T02:31:29.642Z,971.77
2016-06-23T02:32:29.635Z,971.77
2016-06-23T02:33:29.648Z,971.72
2016-06-23T02:34:29.641Z,971.73
2016-06-23T02:35:29.645Z,971.74
2016-06-23T02:36:29.643Z,971.7
2016-06-23T02:37:29.649Z,971.68
2016-06-23T02:38:29.649Z,971.68
2016-06-23T02:39:29.646Z,971.69
2016-06-23T02:40:29.653Z,971.67
2016-06-23T02:41:29.657Z,971.67
2016-06-23T02:42:29.652Z,971.68
2016-06-23T02:43:29.653Z,971.64
2016-06-23T02:44:29.655Z,971.63
2016-06-23T02:45:29.657Z,971.64
2016-06-23T02:46:29.659Z,971.66
2016-06-23T02:47:29.659Z,971.64
2016-06-23T02:48:29.657Z,971.64
2016-06-23T02:49:29.663Z,971.6
2016-06-23T02:50:29.663Z,971.6
2016-06-23T02:51:29.662Z,971.61
2016-06-23T02:52:29.667Z,971.64
2016-06-23T02:53:29.675Z,971.62
2016-06-23T02:54:29.669Z,971.62
2016-06-23T02:55:29.671Z,971.62
2016-06-23T02:56:29.675Z,971.68
2016-06-23T02:57:29.671Z,971.69
2016-06-23T02:58:29.678Z,971.68
2016-06-23T02:59:29.674Z,971.69
2016-06-23T03:00:29.672Z,971.67
2016-06-23T03:01:29.684Z,971.71
2016-06-23T03:02:29.682Z,971.71
2016-06-23T03:03:29.679Z,971.72
2016-06-23T03:04:29.687Z,971.7
2016-06-23T03:05:29.685Z,971.72
2016-06-23T03:06:29.683Z,971.72
2016-06-23T03:07:29.689Z,971.68
2016-06-23T03:08:29.689Z,971.71
2016-06-23T03:09:29.690Z,971.71
2016-06-23T03:10:29.696Z,971.69
2016-06-23T03:11:29.693Z,971.7
2016-06-23T03:12:29.695Z,971.71
2016-06-23T03:13:29.698Z,971.71
2016-06-23T03:14:29.698Z,971.78
2016-06-23T03:15:29.702Z,971.74
2016-06-23T03:16:29.703Z,971.77
2016-06-23T03:17:29.703Z,971.79
2016-06-23T03:18:29.712Z,971.77
2016-06-23T03:19:29.707Z,971.79
2016-06-23T03:20:29.710Z,971.82
2016-06-23T03:21:29.708Z,971.83
2016-06-23T03:22:29.707Z,971.86
2016-06-23T03:23:29.712Z,971.85
2016-06-23T03:24:29.715Z,971.85
2016-06-23T03:25:29.712Z,971.92
2016-06-23T03:26:29.718Z,971.88
2016-06-23T03:27:29.715Z,971.87
2016-06-23T03:28:29.718Z,971.81
2016-06-23T03:29:29.728Z,971.84
2016-06-23T03:30:29.721Z,971.82
2016-06-23T03:31:29.725Z,971.85
2016-06-23T03:32:29.722Z,971.83
2016-06-23T03:33:29.722Z,971.81
2016-06-23T03:34:29.728Z,971.84
2016-06-23T03:35:29.725Z,971.84
2016-06-23T03:36:29.726Z,971.84
2016-06-23T03:37:29.731Z,971.81
2016-06-23T03:38:29.729Z,971.79
2016-06-23T03:39:29.727Z,971.81
2016-06-23T03:40:29.734Z,971.77
2016-06-23T03:41:29.731Z,971.79
2016-06-23T03:42:29.733Z,971.82
2016-06-23T03:43:29.739Z,971.85
2016-06-23T03:44:29.735Z,971.82
2016-06-23T03:45:29.742Z,971.82
2016-06-23T03:46:29.740Z,971.86
2016-06-23T03:47:29.739Z,971.85
2016-06-23T03:48:29.751Z,971.87
2016-06-23T03:49:29.752Z,971.86
2016-06-23T03:50:29.758Z,971.9
2016-06-23T03:51:29.757Z,971.9
2016-06-23T03:52:29.751Z,971.9
2016-06-23T03:53:29.750Z,971.93
2016-06-23T03:54:29.750Z,971.93
2016-06-23T03:55:29.752Z,971.93
2016-06-23T03:56:29.753Z,971.96
2016-06-23T03:57:29.751Z,971.97
2016-06-23T03:58:29.754Z,971.99
2016-06-23T03:59:29.759Z,971.98
2016-06-23T04:00:29.761Z,972.02
2016-06-23T04:01:29.762Z,972.01
2016-06-23T04:02:29.762Z,972.01
2016-06-23T04:03:29.762Z,971.98
2016-06-23T04:04:29.765Z,972.05
2016-06-23T04:05:29.768Z,972.03
2016-06-23T04:06:29.766Z,972.02
2016-06-23T04:07:29.768Z,972.04
2016-06-23T04:08:29.766Z,972.05
2016-06-23T04:09:29.771Z,972.03
2016-06-23T04:10:29.771Z,972.01
2016-06-23T04:11:29.767Z,971.98
2016-06-23T04:12:29.769Z,971.99
2016-06-23T04:13:29.834Z,972.02
2016-06-23T04:14:29.775Z,971.99
2016-06-23T04:15:29.782Z,972.03
2016-06-23T04:16:29.784Z,972.04
2016-06-23T04:17:30.030Z,972.03
2016-06-23T04:18:29.783Z,972
2016-06-23T04:19:29.780Z,972.02
2016-06-23T04:20:29.786Z,971.99
2016-06-23T04:21:29.787Z,972.01
2016-06-23T04:22:29.785Z,972
2016-06-23T04:23:29.783Z,972.02
2016-06-23T04:24:29.790Z,972.05
2016-06-23T04:25:29.793Z,972.07
2016-06-23T04:26:29.788Z,972.09
2016-06-23T04:27:29.795Z,972.07
2016-06-23T04:28:29.794Z,972.06
2016-06-23T04:29:29.794Z,972.1
2016-06-23T04:30:29.799Z,972.08
2016-06-23T04:31:29.795Z,972.11
2016-06-23T04:32:29.806Z,972.08
2016-06-23T04:33:29.810Z,972.11
2016-06-23T04:34:29.799Z,972.11
2016-06-23T04:35:29.805Z,972.14
2016-06-23T04:36:29.809Z,972.09
2016-06-23T04:37:29.805Z,972.12
2016-06-23T04:38:29.816Z,972.12
2016-06-23T04:39:29.813Z,972.11
2016-06-23T04:40:29.810Z,972.14
2016-06-23T04:41:29.822Z,972.15
2016-06-23T04:42:29.818Z,972.15
2016-06-23T04:43:29.816Z,972.1
2016-06-23T04:44:29.820Z,972.16
2016-06-23T04:45:29.822Z,972.18
2016-06-23T04:46:29.818Z,972.16
2016-06-23T04:47:29.830Z,972.2
2016-06-23T04:48:29.822Z,972.16
2016-06-23T04:49:29.826Z,972.19
2016-06-23T04:50:29.829Z,972.21
2016-06-23T04:51:29.827Z,972.2
2016-06-23T04:52:29.833Z,972.17
2016-06-23T04:53:29.831Z,972.19
2016-06-23T04:54:29.852Z,972.18
2016-06-23T04:55:29.838Z,972.16
2016-06-23T04:56:29.832Z,972.19
2016-06-23T04:57:29.841Z,972.18
2016-06-23T04:58:29.840Z,972.22
2016-06-23T04:59:29.845Z,972.22
2016-06-23T05:00:29.844Z,972.21
2016-06-23T05:01:29.845Z,972.24
2016-06-23T05:02:29.845Z,972.22
2016-06-23T05:03:29.848Z,972.23
2016-06-23T05:04:29.848Z,972.22
2016-06-23T05:05:29.851Z,972.2
2016-06-23T05:06:29.857Z,972.23
2016-06-23T05:07:29.857Z,972.24
2016-06-23T05:08:29.859Z,972.25
2016-06-23T05:09:29.861Z,972.25
2016-06-23T05:10:29.859Z,972.27
2016-06-23T05:11:29.864Z,972.3
2016-06-23T05:12:29.862Z,972.3
2016-06-23T05:13:29.866Z,972.31
2016-06-23T05:14:29.871Z,972.3
2016-06-23T05:15:29.873Z,972.3
2016-06-23T05:16:29.875Z,972.31
2016-06-23T05:17:29.878Z,972.3
2016-06-23T05:18:29.876Z,972.26
2016-06-23T05:19:29.883Z,972.29
2016-06-23T05:20:29.878Z,972.28
2016-06-23T05:21:29.883Z,972.3
2016-06-23T05:22:29.883Z,972.31
2016-06-23T05:23:29.887Z,972.3
2016-06-23T05:24:29.888Z,972.27
2016-06-23T05:25:29.887Z,972.27
2016-06-23T05:26:29.894Z,972.28
2016-06-23T05:27:29.893Z,972.23
2016-06-23T05:28:29.895Z,972.25
2016-06-23T05:29:29.897Z,972.26
2016-06-23T05:30:29.903Z,972.28
2016-06-23T05:31:29.902Z,972.32
2016-06-23T05:32:29.905Z,972.26
2016-06-23T05:33:29.906Z,972.28
2016-06-23T05:34:29.913Z,972.35
2016-06-23T05:35:29.915Z,972.33
2016-06-23T05:36:29.913Z,972.31
2016-06-23T05:37:29.916Z,972.29
2016-06-23T05:38:29.914Z,972.26
2016-06-23T05:39:29.918Z,972.24
2016-06-23T05:40:29.919Z,972.29
2016-06-23T05:41:29.923Z,972.27
2016-06-23T05:42:29.925Z,972.27
2016-06-23T05:43:29.922Z,972.26
2016-06-23T05:44:29.928Z,972.28
2016-06-23T05:45:29.934Z,972.3
2016-06-23T05:46:29.934Z,972.33
2016-06-23T05:47:29.939Z,972.3
2016-06-23T05:48:29.937Z,972.28
2016-06-23T05:49:29.941Z,972.3
2016-06-23T05:50:29.942Z,972.3
2016-06-23T05:51:29.941Z,972.32
2016-06-23T05:52:29.943Z,972.28
2016-06-23T05:53:29.949Z,972.27
2016-06-23T05:54:29.954Z,972.26
2016-06-23T05:55:29.955Z,972.29
2016-06-23T05:56:29.960Z,972.27
2016-06-23T05:57:29.957Z,972.29
2016-06-23T05:58:29.961Z,972.29
2016-06-23T05:59:29.962Z,972.26
2016-06-23T06:00:29.966Z,972.29
2016-06-23T06:01:29.966Z,972.26
2016-06-23T06:02:29.973Z,972.28
2016-06-23T06:03:29.986Z,972.27
2016-06-23T06:04:29.975Z,972.29
2016-06-23T06:05:29.974Z,972.26
2016-06-23T06:06:29.975Z,972.27
2016-06-23T06:07:29.986Z,972.3
2016-06-23T06:08:29.983Z,972.29
2016-06-23T06:09:29.987Z,972.3
2016-06-23T06:10:29.987Z,972.32
2016-06-23T06:11:29.990Z,972.27
2016-06-23T06:12:29.989Z,972.26
2016-06-23T06:13:29.997Z,972.27
2016-06-23T06:14:29.999Z,972.29
2016-06-23T06:15:29.995Z,972.25
2016-06-23T06:16:30.001Z,972.3
2016-06-23T06:17:30.053Z,972.27
2016-06-23T06:18:30.008Z,972.26
2016-06-23T06:19:30.011Z,972.28
2016-06-23T06:20:30.008Z,972.32
2016-06-23T06:21:30.017Z,972.3
2016-06-23T06:22:30.014Z,972.32
2016-06-23T06:23:30.018Z,972.34
2016-06-23T06:24:30.023Z,972.37
2016-06-23T06:25:30.026Z,972.33
2016-06-23T06:26:30.023Z,972.34
2016-06-23T06:27:30.026Z,972.31
2016-06-23T06:28:30.030Z,972.34
2016-06-23T06:29:30.038Z,972.31
2016-06-23T06:30:30.041Z,972.3
2016-06-23T06:31:30.043Z,972.31
2016-06-23T06:32:30.043Z,972.31
2016-06-23T06:33:30.044Z,972.3
2016-06-23T06:34:30.050Z,972.31
2016-06-23T06:35:30.051Z,972.32
2016-06-23T06:36:30.049Z,972.31
2016-06-23T06:37:30.053Z,972.34
2016-06-23T06:38:30.055Z,972.34
2016-06-23T06:39:30.061Z,972.33
2016-06-23T06:40:30.062Z,972.35
2016-06-23T06:41:30.062Z,972.35
2016-06-23T06:42:30.066Z,972.37
2016-06-23T06:43:30.067Z,972.39
2016-06-23T06:44:30.067Z,972.39
2016-06-23T06:45:30.075Z,972.4
2016-06-23T06:46:30.077Z,972.4
2016-06-23T06:47:30.081Z,972.39
2016-06-23T06:48:30.081Z,972.39
2016-06-23T06:49:30.083Z,972.38
2016-06-23T06:50:30.088Z,972.4
2016-06-23T06:51:30.091Z,972.42
2016-06-23T06:52:30.093Z,972.44
2016-06-23T06:53:30.094Z,972.43
2016-06-23T06:54:30.100Z,972.41
2016-06-23T06:55:30.104Z,972.42
2016-06-23T06:56:30.101Z,972.44
2016-06-23T06:57:30.106Z,972.42
2016-06-23T06:58:30.105Z,972.44
2016-06-23T06:59:30.110Z,972.45
2016-06-23T07:00:30.118Z,972.44
2016-06-23T07:01:30.111Z,972.48
2016-06-23T07:02:30.121Z,972.46
2016-06-23T07:03:30.119Z,972.48
2016-06-23T07:04:30.124Z,972.5
2016-06-23T07:05:30.129Z,972.52
2016-06-23T07:06:30.132Z,972.48
2016-06-23T07:07:30.128Z,972.49
2016-06-23T07:08:30.134Z,972.52
2016-06-23T07:09:30.140Z,972.54
2016-06-23T07:10:30.138Z,972.55
2016-06-23T07:11:30.146Z,972.54
2016-06-23T07:12:30.148Z,972.54
2016-06-23T07:13:30.146Z,972.57
2016-06-23T07:14:30.153Z,972.56
2016-06-23T07:15:30.154Z,972.52
2016-06-23T07:16:30.157Z,972.53
2016-06-23T07:17:30.263Z,972.58
2016-06-23T07:18:30.162Z,972.6
2016-06-23T07:19:30.162Z,972.6
2016-06-23T07:20:30.166Z,972.56
2016-06-23T07:21:30.170Z,972.6
2016-06-23T07:22:30.174Z,972.58
2016-06-23T07:23:30.178Z,972.57
2016-06-23T07:24:30.178Z,972.58
2016-06-23T07:25:30.181Z,972.59
2016-06-23T07:26:30.186Z,972.61
2016-06-23T07:27:30.194Z,972.57
2016-06-23T07:28:30.189Z,972.57
2016-06-23T07:29:30.194Z,972.59
2016-06-23T07:30:30.191Z,972.6
2016-06-23T07:31:30.206Z,972.61
2016-06-23T07:32:30.200Z,972.59
2016-06-23T07:33:30.201Z,972.57
2016-06-23T07:34:30.206Z,972.56
2016-06-23T07:35:30.208Z,972.61
2016-06-23T07:36:30.215Z,972.59
2016-06-23T07:37:30.219Z,972.62
2016-06-23T07:38:30.223Z,972.64
2016-06-23T07:39:30.222Z,972.65
2016-06-23T07:40:30.225Z,972.67
2016-06-23T07:41:30.233Z,972.65
2016-06-23T07:42:30.229Z,972.67
2016-06-23T07:43:30.238Z,972.63
2016-06-23T07:44:30.236Z,972.66
2016-06-23T07:45:30.242Z,972.68
2016-06-23T07:46:30.239Z,972.64
2016-06-23T07:47:30.249Z,972.64
2016-06-23T07:48:30.249Z,972.63
2016-06-23T07:49:30.246Z,972.67
2016-06-23T07:50:30.256Z,972.63
2016-06-23T07:51:30.267Z,972.63
2016-06-23T07:52:30.263Z,972.64
2016-06-23T07:53:30.259Z,972.62
2016-06-23T07:54:30.265Z,972.62
2016-06-23T07:55:30.279Z,972.57
2016-06-23T07:56:30.269Z,972.6
2016-06-23T07:57:30.283Z,972.61
2016-06-23T07:58:30.281Z,972.58
2016-06-23T07:59:30.274Z,972.56
2016-06-23T08:00:30.280Z,972.51
2016-06-23T08:01:30.285Z,972.52
2016-06-23T08:02:30.302Z,972.49
2016-06-23T08:03:30.286Z,972.53
2016-06-23T08:04:30.291Z,972.51
2016-06-23T08:05:30.295Z,972.52
2016-06-23T08:06:30.301Z,972.53
2016-06-23T08:07:30.301Z,972.54
2016-06-23T08:08:30.306Z,972.53
2016-06-23T08:09:30.311Z,972.56
2016-06-23T08:10:30.322Z,972.58
2016-06-23T08:11:30.315Z,972.57
2016-06-23T08:12:30.321Z,972.59
2016-06-23T08:13:30.315Z,972.57
2016-06-23T08:14:30.328Z,972.55
2016-06-23T08:15:30.334Z,972.56
2016-06-23T08:16:30.329Z,972.59
2016-06-23T08:17:30.328Z,972.55
2016-06-23T08:18:30.330Z,972.53
2016-06-23T08:19:30.334Z,972.55
2016-06-23T08:20:30.337Z,972.56
2016-06-23T08:21:30.343Z,972.63
2016-06-23T08:22:30.348Z,972.6
2016-06-23T08:23:30.355Z,972.61
2016-06-23T08:24:30.352Z,972.58
2016-06-23T08:25:30.354Z,972.58
2016-06-23T08:26:30.358Z,972.59
2016-06-23T08:27:30.526Z,972.58
2016-06-23T08:28:30.373Z,972.56
2016-06-23T08:29:30.366Z,972.57
2016-06-23T08:30:30.375Z,972.56
2016-06-23T08:31:30.376Z,972.57
2016-06-23T08:32:30.374Z,972.6
2016-06-23T08:33:30.381Z,972.6
2016-06-23T08:34:30.388Z,972.63
2016-06-23T08:35:30.387Z,972.56
2016-06-23T08:36:30.386Z,972.57
2016-06-23T08:37:30.398Z,972.53
2016-06-23T08:38:30.390Z,972.54
2016-06-23T08:39:30.398Z,972.52
2016-06-23T08:40:30.403Z,972.49
2016-06-23T08:41:30.405Z,972.48
2016-06-23T08:42:30.408Z,972.51
2016-06-23T08:43:30.409Z,972.47
2016-06-23T08:44:30.415Z,972.51
2016-06-23T08:45:30.419Z,972.51
2016-06-23T08:46:30.426Z,972.48
2016-06-23T08:47:30.427Z,972.48
2016-06-23T08:48:30.422Z,972.5
2016-06-23T08:49:30.428Z,972.53
2016-06-23T08:50:30.438Z,972.52
2016-06-23T08:51:30.437Z,972.53
2016-06-23T08:52:30.440Z,972.52
2016-06-23T08:53:30.440Z,972.53
2016-06-23T08:54:30.446Z,972.5
2016-06-23T08:55:30.448Z,972.56
2016-06-23T08:56:30.450Z,972.55
2016-06-23T08:57:30.457Z,972.57
2016-06-23T08:58:30.456Z,972.56
2016-06-23T08:59:30.461Z,972.55
2016-06-23T09:00:30.464Z,972.57
2016-06-23T09:01:30.466Z,972.54
2016-06-23T09:02:30.472Z,972.52
2016-06-23T09:03:30.476Z,972.56
2016-06-23T09:04:30.481Z,972.56
2016-06-23T09:05:30.484Z,972.57
2016-06-23T09:06:30.485Z,972.55
2016-06-23T09:07:30.487Z,972.55
2016-06-23T09:08:30.492Z,972.54
2016-06-23T09:09:30.496Z,972.53
2016-06-23T09:10:30.496Z,972.57
2016-06-23T09:11:30.499Z,972.56
2016-06-23T09:12:30.501Z,972.55
2016-06-23T09:13:30.503Z,972.53
2016-06-23T09:14:30.513Z,972.56
2016-06-23T09:15:30.511Z,972.55
2016-06-23T09:16:30.515Z,972.56
2016-06-23T09:17:30.520Z,972.59
2016-06-23T09:18:30.519Z,972.55
2016-06-23T09:19:30.526Z,972.56
2016-06-23T09:20:30.531Z,972.58
2016-06-23T09:21:30.536Z,972.54
2016-06-23T09:22:30.536Z,972.55
2016-06-23T09:23:30.542Z,972.57
2016-06-23T09:24:30.549Z,972.56
2016-06-23T09:25:30.550Z,972.49
2016-06-23T09:26:30.549Z,972.51
2016-06-23T09:27:30.554Z,972.53
2016-06-23T09:28:30.561Z,972.48
2016-06-23T09:29:30.561Z,972.51
2016-06-23T09:30:30.559Z,972.47
2016-06-23T09:31:30.567Z,972.51
2016-06-23T09:32:30.565Z,972.49
2016-06-23T09:33:30.576Z,972.5
2016-06-23T09:34:30.573Z,972.47
2016-06-23T09:35:30.578Z,972.48
2016-06-23T09:36:30.578Z,972.51
2016-06-23T09:37:30.587Z,972.47
2016-06-23T09:38:30.587Z,972.5
2016-06-23T09:39:30.620Z,972.48
2016-06-23T09:40:30.595Z,972.48
2016-06-23T09:41:30.603Z,972.45
2016-06-23T09:42:30.605Z,972.44
2016-06-23T09:43:30.606Z,972.49
2016-06-23T09:44:30.604Z,972.48
2016-06-23T09:45:30.605Z,972.46
2016-06-23T09:46:30.625Z,972.47
2016-06-23T09:47:30.619Z,972.48
2016-06-23T09:48:30.618Z,972.49
2016-06-23T09:49:30.622Z,972.46
2016-06-23T09:50:30.623Z,972.44
2016-06-23T09:51:30.634Z,972.44
2016-06-23T09:52:30.631Z,972.48
2016-06-23T09:53:30.635Z,972.45
2016-06-23T09:54:30.639Z,972.47
2016-06-23T09:55:30.643Z,972.48
2016-06-23T09:56:30.645Z,972.45
2016-06-23T09:57:30.652Z,972.48
2016-06-23T09:58:30.653Z,972.48
2016-06-23T09:59:30.659Z,972.48
2016-06-23T10:00:30.656Z,972.47
2016-06-23T10:01:30.660Z,972.46
2016-06-23T10:02:30.679Z,972.46
2016-06-23T10:03:30.668Z,972.47
2016-06-23T10:04:30.670Z,972.43
2016-06-23T10:05:30.686Z,972.44
2016-06-23T10:06:30.682Z,972.44
2016-06-23T10:07:30.682Z,972.43
2016-06-23T10:08:30.686Z,972.42
2016-06-23T10:09:30.694Z,972.42
2016-06-23T10:10:30.692Z,972.4
2016-06-23T10:11:30.697Z,972.39
2016-06-23T10:12:30.699Z,972.41
2016-06-23T10:13:30.699Z,972.45
2016-06-23T10:14:30.704Z,972.39
2016-06-23T10:15:30.707Z,972.35
2016-06-23T10:16:30.711Z,972.37
2016-06-23T10:17:30.766Z,972.34
2016-06-23T10:18:30.719Z,972.38
2016-06-23T10:19:30.720Z,972.33
2016-06-23T10:20:30.724Z,972.32
2016-06-23T10:21:30.734Z,972.28
2016-06-23T10:22:30.734Z,972.3
2016-06-23T10:23:30.733Z,972.27
2016-06-23T10:24:30.735Z,972.26
2016-06-23T10:25:30.744Z,972.29
2016-06-23T10:26:30.743Z,972.3
2016-06-23T10:27:30.750Z,972.25
2016-06-23T10:28:30.744Z,972.29
2016-06-23T10:29:30.754Z,972.28
2016-06-23T10:30:30.755Z,972.29
2016-06-23T10:31:30.765Z,972.27
2016-06-23T10:32:30.766Z,972.29
2016-06-23T10:33:30.763Z,972.27
2016-06-23T10:34:30.765Z,972.28
2016-06-23T10:35:30.786Z,972.24
2016-06-23T10:36:30.773Z,972.23
2016-06-23T10:37:30.784Z,972.29
2016-06-23T10:38:30.786Z,972.26
2016-06-23T10:39:30.787Z,972.19
2016-06-23T10:40:30.787Z,972.25
2016-06-23T10:41:30.789Z,972.2
2016-06-23T10:42:30.789Z,972.19
2016-06-23T10:43:30.795Z,972.24
2016-06-23T10:44:30.799Z,972.17
2016-06-23T10:45:30.807Z,972.17
2016-06-23T10:46:30.806Z,972.2
2016-06-23T10:47:31.379Z,972.14
2016-06-23T10:48:30.812Z,972.18
2016-06-23T10:49:30.818Z,972.17
2016-06-23T10:50:30.819Z,972.16
2016-06-23T10:51:30.833Z,972.18
2016-06-23T10:52:30.823Z,972.17
2016-06-23T10:53:30.826Z,972.13
2016-06-23T10:54:30.831Z,972.08
2016-06-23T10:55:30.833Z,972.11
2016-06-23T10:56:30.834Z,972.13
2016-06-23T10:57:30.838Z,972.1
2016-06-23T10:58:30.841Z,972.11
2016-06-23T10:59:30.844Z,972.06
2016-06-23T11:00:30.849Z,972.08
2016-06-23T11:01:30.851Z,972.03
2016-06-23T11:02:30.856Z,972.01
2016-06-23T11:03:30.859Z,972.04
2016-06-23T11:04:30.861Z,972.04
2016-06-23T11:05:30.867Z,972.03
2016-06-23T11:06:30.866Z,971.99
2016-06-23T11:07:30.872Z,972
2016-06-23T11:08:30.875Z,972.02
2016-06-23T11:09:30.878Z,972
2016-06-23T11:10:30.884Z,972.01
2016-06-23T11:11:30.882Z,972.02
2016-06-23T11:12:30.890Z,971.99
2016-06-23T11:13:30.892Z,971.99
2016-06-23T11:14:30.891Z,971.98
2016-06-23T11:15:31.385Z,971.99
2016-06-23T11:16:30.899Z,971.97
2016-06-23T11:17:30.907Z,971.96
2016-06-23T11:18:30.908Z,971.96
2016-06-23T11:19:30.906Z,971.91
2016-06-23T11:20:30.915Z,971.92
2016-06-23T11:21:30.915Z,971.89
2016-06-23T11:22:30.918Z,971.89
2016-06-23T11:23:30.919Z,971.86
2016-06-23T11:24:30.920Z,971.85
2016-06-23T11:25:30.927Z,971.81
2016-06-23T11:26:30.932Z,971.78
2016-06-23T11:27:30.935Z,971.82
2016-06-23T11:28:30.939Z,971.81
2016-06-23T11:29:30.946Z,971.77
2016-06-23T11:30:30.944Z,971.76
2016-06-23T11:31:30.958Z,971.75
2016-06-23T11:32:30.954Z,971.76
2016-06-23T11:33:30.951Z,971.75
2016-06-23T11:34:30.957Z,971.71
2016-06-23T11:35:30.956Z,971.71
2016-06-23T11:36:30.968Z,971.69
2016-06-23T11:37:30.968Z,971.72
2016-06-23T11:38:30.967Z,971.68
2016-06-23T11:39:30.973Z,971.67
2016-06-23T11:40:30.974Z,971.65
2016-06-23T11:41:30.989Z,971.66
2016-06-23T11:42:30.982Z,971.65
2016-06-23T11:43:30.982Z,971.66
2016-06-23T11:44:30.989Z,971.62
2016-06-23T11:45:30.993Z,971.6
2016-06-23T11:46:31.000Z,971.62
2016-06-23T11:47:30.993Z,971.61
2016-06-23T11:48:31.003Z,971.59
2016-06-23T11:49:31.006Z,971.57
2016-06-23T11:50:31.011Z,971.57
2016-06-23T11:51:31.012Z,971.51
2016-06-23T11:52:31.009Z,971.51
2016-06-23T11:53:31.020Z,971.53
2016-06-23T11:54:31.018Z,971.52
2016-06-23T11:55:31.022Z,971.49
2016-06-23T11:56:31.025Z,971.51
2016-06-23T11:57:31.030Z,971.5
2016-06-23T11:58:31.032Z,971.51
2016-06-23T11:59:31.037Z,971.52
2016-06-23T12:00:31.037Z,971.49
2016-06-23T12:01:31.041Z,971.48
2016-06-23T12:02:31.041Z,971.49
2016-06-23T12:03:31.051Z,971.43
2016-06-23T12:04:31.054Z,971.43
2016-06-23T12:05:31.049Z,971.42
2016-06-23T12:06:31.055Z,971.37
2016-06-23T12:07:31.063Z,971.39
2016-06-23T12:08:31.064Z,971.37
2016-06-23T12:09:31.063Z,971.38
2016-06-23T12:10:31.069Z,971.33
2016-06-23T12:11:31.072Z,971.34
2016-06-23T12:12:31.073Z,971.35
2016-06-23T12:13:31.081Z,971.38
2016-06-23T12:14:31.083Z,971.34
2016-06-23T12:15:31.086Z,971.34
2016-06-23T12:16:31.087Z,971.33
2016-06-23T12:17:31.140Z,971.32
2016-06-23T12:18:31.094Z,971.27
2016-06-23T12:19:31.100Z,971.29
2016-06-23T12:20:31.100Z,971.25
2016-06-23T12:21:31.108Z,971.25
2016-06-23T12:22:31.111Z,971.22
2016-06-23T12:23:31.112Z,971.23
2016-06-23T12:24:31.114Z,971.2
2016-06-23T12:25:31.118Z,971.17
2016-06-23T12:26:31.122Z,971.18
2016-06-23T12:27:31.123Z,971.15
2016-06-23T12:28:31.124Z,971.13
2016-06-23T12:29:31.124Z,971.12
2016-06-23T12:30:31.134Z,971.16
2016-06-23T12:31:31.137Z,971.16